Time;durP1;ratioP1;P1;durP2;ratioP2;P2;SDS_P1;SDS_P2;PMS_P1;PMS_P2;Temp;Humidity;BMP_temperature;BMP_pressure;BME280_temperature;BME280_humidity;BME280_pressure;Samples;Min_cycle;Max_cycle;Signal;HPM_P1;HPM_P2
2021/03/26 00:01:26;;;;;;;13.77;8.13;;;6.10;99.90;;;;;;492364;241;27461;-76
2021/03/26 00:03:27;;;;;;;11.30;9.15;;;6.10;99.90;;;;;;492300;241;27435;-76
2021/03/26 00:05:28;;;;;;;14.45;8.48;;;6.10;99.90;;;;;;492285;241;27557;-76
2021/03/26 00:07:30;;;;;;;13.77;8.30;;;6.10;99.90;;;;;;492226;241;27541;-76
2021/03/26 00:09:31;;;;;;;15.95;8.27;;;6.00;99.90;;;;;;492252;241;27466;-76
2021/03/26 00:11:32;;;;;;;12.43;8.38;;;5.90;99.90;;;;;;492246;241;27949;-76
2021/03/26 00:13:33;;;;;;;14.52;8.63;;;5.80;99.90;;;;;;492213;241;27478;-75
2021/03/26 00:15:35;;;;;;;17.87;9.77;;;5.80;99.90;;;;;;492248;241;27577;-76
2021/03/26 00:17:36;;;;;;;16.73;10.27;;;5.90;99.90;;;;;;492332;241;27489;-73
2021/03/26 00:19:37;;;;;;;16.45;9.05;;;5.80;99.90;;;;;;492309;241;27442;-73
2021/03/26 00:21:39;;;;;;;16.33;9.70;;;5.80;99.90;;;;;;482006;245;27995;-73
2021/03/26 00:23:40;;;;;;;17.00;10.10;;;5.80;99.90;;;;;;484154;245;27988;-73
2021/03/26 00:25:41;;;;;;;16.85;10.45;;;5.80;99.90;;;;;;502478;236;27450;-72
2021/03/26 00:27:42;;;;;;;15.93;10.43;;;5.80;99.90;;;;;;483281;244;27536;-73
2021/03/26 00:29:44;;;;;;;17.62;11.02;;;5.90;99.90;;;;;;481993;245;27868;-76
2021/03/26 00:31:45;;;;;;;18.58;9.98;;;6.00;99.90;;;;;;484145;245;28083;-73
2021/03/26 00:33:46;;;;;;;19.90;11.93;;;5.90;99.90;;;;;;502528;236;27992;-73
2021/03/26 00:35:47;;;;;;;17.02;11.57;;;6.00;99.90;;;;;;483287;244;27495;-73
2021/03/26 00:37:49;;;;;;;18.33;11.80;;;6.00;99.90;;;;;;481969;245;27518;-73
2021/03/26 00:39:50;;;;;;;22.33;12.13;;;6.00;99.90;;;;;;484180;245;27572;-73
2021/03/26 00:41:51;;;;;;;17.92;12.88;;;6.00;99.90;;;;;;502544;236;27895;-74
2021/03/26 00:43:52;;;;;;;22.62;12.48;;;6.00;99.90;;;;;;483352;244;27902;-74
2021/03/26 00:45:54;;;;;;;27.08;11.95;;;6.00;99.90;;;;;;482044;245;27584;-76
2021/03/26 00:47:55;;;;;;;21.10;12.27;;;6.00;99.90;;;;;;484242;245;27502;-75
2021/03/26 00:49:56;;;;;;;24.85;13.18;;;6.00;99.90;;;;;;502667;236;27378;-76
2021/03/26 00:51:57;;;;;;;31.40;13.35;;;6.00;99.90;;;;;;483479;244;27911;-74
2021/03/26 00:53:59;;;;;;;21.12;13.00;;;6.00;99.90;;;;;;482151;245;28078;-74
2021/03/26 00:56:00;;;;;;;21.20;12.40;;;6.00;99.90;;;;;;484328;245;27619;-74
2021/03/26 00:58:01;;;;;;;23.73;12.40;;;6.00;99.90;;;;;;502678;236;27358;-73
2021/03/26 01:00:03;;;;;;;17.87;11.93;;;5.90;99.90;;;;;;483448;244;27404;-74
2021/03/26 01:02:04;;;;;;;20.98;12.70;;;5.90;99.90;;;;;;482107;245;28830;-73
2021/03/26 01:04:05;;;;;;;18.85;12.13;;;5.90;99.90;;;;;;484289;245;27939;-74
2021/03/26 01:06:06;;;;;;;18.08;11.88;;;5.90;99.90;;;;;;502594;236;27493;-74
2021/03/26 01:08:08;;;;;;;19.92;13.52;;;5.90;99.90;;;;;;483326;244;27384;-74
2021/03/26 01:10:09;;;;;;;22.25;13.32;;;5.90;99.90;;;;;;482013;245;27509;-74
2021/03/26 01:12:10;;;;;;;24.40;14.40;;;5.90;99.90;;;;;;484146;245;27626;-73
2021/03/26 01:14:12;;;;;;;26.05;13.95;;;5.90;99.90;;;;;;502508;236;29024;-74
2021/03/26 01:16:13;;;;;;;18.00;11.68;;;6.00;99.90;;;;;;483312;244;27505;-73
2021/03/26 01:18:14;;;;;;;27.30;14.80;;;6.00;99.90;;;;;;482014;245;27469;-74
2021/03/26 01:20:16;;;;;;;23.50;14.60;;;5.90;99.90;;;;;;484141;245;27515;-73
2021/03/26 01:22:16;;;;;;;25.67;13.60;;;5.90;99.90;;;;;;502469;236;27830;-74
2021/03/26 01:24:18;;;;;;;22.10;14.85;;;6.00;99.90;;;;;;483315;244;27885;-74
2021/03/26 01:26:19;;;;;;;28.48;14.15;;;5.90;99.90;;;;;;482025;245;27518;-74
2021/03/26 01:28:20;;;;;;;24.75;13.90;;;5.90;99.90;;;;;;484131;245;27855;-76
2021/03/26 01:30:22;;;;;;;21.95;14.00;;;5.90;99.90;;;;;;502509;236;27367;-76
2021/03/26 01:32:23;;;;;;;19.62;13.07;;;5.80;99.90;;;;;;483301;244;28002;-73
2021/03/26 01:34:24;;;;;;;24.77;15.43;;;5.80;99.90;;;;;;481960;245;27502;-73
2021/03/26 01:36:25;;;;;;;24.65;15.15;;;5.80;99.90;;;;;;484145;245;27591;-73
2021/03/26 01:38:27;;;;;;;26.35;16.05;;;5.80;99.90;;;;;;502495;236;27371;-74
2021/03/26 01:40:28;;;;;;;27.87;14.55;;;5.80;99.90;;;;;;483303;244;27417;-74
2021/03/26 01:42:30;;;;;;;19.33;13.60;;;5.80;99.90;;;;;;481951;245;27980;-74
2021/03/26 01:44:30;;;;;;;27.67;14.52;;;5.80;99.90;;;;;;484098;245;27544;-74
2021/03/26 01:46:32;;;;;;;22.73;14.50;;;5.70;99.90;;;;;;502546;236;27432;-74
2021/03/26 01:48:33;;;;;;;21.40;14.15;;;5.70;99.90;;;;;;483284;244;27483;-74
2021/03/26 01:50:34;;;;;;;24.15;13.85;;;5.60;99.90;;;;;;481991;245;27510;-74
2021/03/26 01:52:35;;;;;;;29.02;14.57;;;5.50;99.90;;;;;;492091;241;27885;-74
2021/03/26 01:54:37;;;;;;;29.95;16.10;;;5.50;99.90;;;;;;503874;235;27509;-74
2021/03/26 01:56:38;;;;;;;31.60;16.87;;;5.40;99.90;;;;;;486335;244;27519;-73
2021/03/26 01:58:39;;;;;;;30.98;15.13;;;5.40;99.90;;;;;;503926;236;27476;-73
2021/03/26 02:00:40;;;;;;;28.92;15.23;;;5.30;99.90;;;;;;486549;244;27540;-74
2021/03/26 02:02:42;;;;;;;29.52;14.77;;;5.30;99.90;;;;;;503934;236;27963;-73
2021/03/26 02:04:43;;;;;;;30.27;15.13;;;5.30;99.90;;;;;;503943;236;27381;-74
2021/03/26 02:06:44;;;;;;;25.62;13.90;;;5.20;99.90;;;;;;486684;244;27480;-73
2021/03/26 02:08:46;;;;;;;20.00;14.07;;;5.10;99.90;;;;;;504114;236;27395;-74
2021/03/26 02:10:47;;;;;;;25.83;14.50;;;5.20;99.90;;;;;;486723;244;27536;-73
2021/03/26 02:12:48;;;;;;;24.98;15.20;;;5.10;99.90;;;;;;504097;236;27915;-73
2021/03/26 02:14:49;;;;;;;27.48;15.30;;;5.10;99.90;;;;;;504036;235;27387;-73
2021/03/26 02:16:51;;;;;;;24.33;14.77;;;5.10;99.90;;;;;;486672;244;27520;-73
2021/03/26 02:18:52;;;;;;;23.30;14.15;;;5.10;99.90;;;;;;504061;236;27353;-73
2021/03/26 02:20:53;;;;;;;23.55;14.68;;;5.00;99.90;;;;;;503966;236;27432;-74
2021/03/26 02:22:54;;;;;;;31.73;16.58;;;5.10;99.90;;;;;;486612;244;27992;-73
2021/03/26 02:24:56;;;;;;;29.02;17.00;;;5.00;99.90;;;;;;503927;236;27869;-73
2021/03/26 02:26:57;;;;;;;24.52;15.93;;;5.00;99.90;;;;;;503900;236;27389;-74
2021/03/26 02:28:58;;;;;;;26.75;15.38;;;5.00;99.90;;;;;;486538;244;27592;-74
2021/03/26 02:30:59;;;;;;;29.20;15.50;;;4.90;99.90;;;;;;503909;236;27460;-74
2021/03/26 02:33:01;;;;;;;27.65;15.80;;;5.00;99.90;;;;;;503896;236;27912;-73
2021/03/26 02:35:02;;;;;;;24.63;14.82;;;4.90;99.90;;;;;;486508;244;28057;-74
2021/03/26 02:37:03;;;;;;;23.60;14.20;;;5.00;99.90;;;;;;503890;236;27374;-74
2021/03/26 02:39:04;;;;;;;21.50;14.20;;;5.00;99.90;;;;;;486544;244;27507;-73
2021/03/26 02:41:06;;;;;;;28.17;14.32;;;4.90;99.90;;;;;;503895;236;27452;-76
2021/03/26 02:43:07;;;;;;;23.30;15.10;;;5.00;99.90;;;;;;486514;244;27660;-76
2021/03/26 02:45:08;;;;;;;25.02;13.62;;;4.90;99.90;;;;;;503863;236;27854;-76
2021/03/26 02:47:10;;;;;;;26.95;15.10;;;4.90;99.90;;;;;;486518;244;28185;-74
2021/03/26 02:49:11;;;;;;;25.00;13.85;;;4.90;99.90;;;;;;503887;236;27373;-74
2021/03/26 02:51:12;;;;;;;25.88;15.88;;;5.00;99.90;;;;;;503860;236;27467;-74
2021/03/26 02:53:13;;;;;;;26.67;15.02;;;5.00;99.90;;;;;;503905;236;27389;-74
2021/03/26 02:55:15;;;;;;;27.05;17.67;;;5.00;99.90;;;;;;486548;244;27526;-73
2021/03/26 02:57:16;;;;;;;40.63;15.70;;;5.10;99.90;;;;;;503891;236;27868;-73
2021/03/26 02:59:17;;;;;;;30.67;16.10;;;5.00;99.90;;;;;;486556;244;27628;-73
2021/03/26 03:01:19;;;;;;;30.25;15.93;;;5.10;99.90;;;;;;503916;236;27381;-73
2021/03/26 03:03:20;;;;;;;23.50;14.73;;;5.00;99.90;;;;;;486754;240;27591;-72
2021/03/26 03:05:21;;;;;;;28.52;15.48;;;5.00;99.90;;;;;;504287;236;27445;-73
2021/03/26 03:07:22;;;;;;;29.37;15.88;;;4.90;99.90;;;;;;486904;244;27929;-73
2021/03/26 03:09:23;;;;;;;27.87;15.80;;;4.90;99.90;;;;;;504082;236;27961;-73
2021/03/26 03:11:25;;;;;;;25.73;14.95;;;4.90;99.90;;;;;;486597;244;27544;-73
2021/03/26 03:13:26;;;;;;;27.02;15.75;;;4.90;99.90;;;;;;503916;233;27389;-73
2021/03/26 03:15:27;;;;;;;25.40;15.25;;;4.80;99.90;;;;;;503941;236;27393;-74
2021/03/26 03:17:28;;;;;;;26.65;16.05;;;4.80;99.90;;;;;;486580;244;27560;-73
2021/03/26 03:19:30;;;;;;;29.20;16.33;;;4.80;99.90;;;;;;503940;236;27981;-73
2021/03/26 03:21:31;;;;;;;24.65;15.05;;;4.80;99.90;;;;;;486560;244;27535;-74
2021/03/26 03:23:32;;;;;;;36.05;16.48;;;4.80;99.90;;;;;;503879;236;27377;-73
2021/03/26 03:25:33;;;;;;;31.27;17.77;;;4.80;99.90;;;;;;486581;244;27529;-74
2021/03/26 03:27:35;;;;;;;31.75;16.48;;;4.80;99.90;;;;;;503949;236;27342;-74
2021/03/26 03:29:36;;;;;;;28.42;16.17;;;4.80;99.90;;;;;;486637;244;27961;-73
2021/03/26 03:31:37;;;;;;;33.22;17.45;;;4.80;99.90;;;;;;504097;236;27902;-76
2021/03/26 03:33:39;;;;;;;25.00;15.20;;;4.80;99.90;;;;;;486724;244;27526;-76
2021/03/26 03:35:40;;;;;;;28.20;17.55;;;4.80;99.90;;;;;;504056;236;27373;-75
2021/03/26 03:37:41;;;;;;;26.65;14.43;;;4.80;99.90;;;;;;504071;236;27341;-73
2021/03/26 03:39:42;;;;;;;24.70;16.65;;;4.80;99.90;;;;;;486633;244;27528;-74
2021/03/26 03:41:44;;;;;;;28.05;16.10;;;4.80;99.90;;;;;;503927;236;27979;-77
2021/03/26 03:43:45;;;;;;;28.75;16.20;;;4.80;99.90;;;;;;486559;244;27539;-76
2021/03/26 03:45:46;;;;;;;30.30;18.90;;;4.80;99.90;;;;;;503945;236;27384;-73
2021/03/26 03:47:47;;;;;;;31.67;18.08;;;4.70;99.90;;;;;;486558;244;27512;-73
2021/03/26 03:49:49;;;;;;;31.90;18.87;;;4.80;99.90;;;;;;503923;236;27385;-73
2021/03/26 03:51:50;;;;;;;26.65;16.67;;;4.70;99.90;;;;;;486545;244;28023;-73
2021/03/26 03:53:51;;;;;;;31.30;17.10;;;4.80;99.90;;;;;;503883;236;27864;-74
2021/03/26 03:55:52;;;;;;;26.27;16.80;;;4.80;99.90;;;;;;503947;236;27388;-78
2021/03/26 03:57:54;;;;;;;27.33;15.90;;;4.90;99.90;;;;;;486537;244;27579;-73
2021/03/26 03:59:55;;;;;;;24.17;16.30;;;4.80;99.90;;;;;;503914;236;27405;-74
2021/03/26 04:01:56;;;;;;;28.65;16.83;;;4.90;99.90;;;;;;486569;244;27556;-74
2021/03/26 04:03:57;;;;;;;27.90;16.77;;;4.90;99.90;;;;;;503937;236;27479;-74
2021/03/26 04:05:59;;;;;;;32.40;19.30;;;4.90;99.90;;;;;;486597;244;27547;-74
2021/03/26 04:08:00;;;;;;;26.40;15.70;;;4.80;99.90;;;;;;503912;236;27413;-73
2021/03/26 04:10:01;;;;;;;29.60;17.55;;;4.80;99.90;;;;;;486547;244;27517;-74
2021/03/26 04:12:02;;;;;;;32.25;17.98;;;4.80;99.90;;;;;;503935;236;27392;-74
2021/03/26 04:14:04;;;;;;;30.30;17.12;;;4.80;99.90;;;;;;503916;236;28030;-74
2021/03/26 04:16:05;;;;;;;28.95;17.15;;;4.80;99.90;;;;;;486537;244;29038;-74
2021/03/26 04:18:06;;;;;;;33.00;17.90;;;4.80;99.90;;;;;;503900;236;27377;-73
2021/03/26 04:20:08;;;;;;;28.60;17.00;;;4.80;99.90;;;;;;486496;244;27535;-73
2021/03/26 04:22:09;;;;;;;27.90;15.88;;;4.80;99.90;;;;;;503892;236;27489;-74
2021/03/26 04:24:10;;;;;;;27.95;16.20;;;4.80;99.90;;;;;;486584;244;27888;-73
2021/03/26 04:26:11;;;;;;;29.20;15.50;;;4.70;99.90;;;;;;503889;236;28582;-74
2021/03/26 04:28:13;;;;;;;29.40;17.65;;;4.80;99.90;;;;;;503888;236;27991;-73
2021/03/26 04:30:14;;;;;;;24.27;15.15;;;4.70;99.90;;;;;;486530;244;27528;-73
2021/03/26 04:32:15;;;;;;;28.15;16.58;;;4.70;99.90;;;;;;503889;236;27350;-74
2021/03/26 04:34:16;;;;;;;26.85;15.70;;;4.70;99.90;;;;;;486556;244;27532;-73
2021/03/26 04:36:18;;;;;;;30.25;16.73;;;4.70;99.90;;;;;;503899;236;27397;-74
2021/03/26 04:38:19;;;;;;;25.55;15.35;;;4.70;99.90;;;;;;486517;244;28117;-73
2021/03/26 04:40:20;;;;;;;22.33;14.73;;;4.70;99.90;;;;;;503918;236;27924;-74
2021/03/26 04:42:21;;;;;;;25.77;15.40;;;4.60;99.90;;;;;;503903;236;27354;-73
2021/03/26 04:44:23;;;;;;;26.67;16.60;;;4.70;99.90;;;;;;486586;244;27635;-73
2021/03/26 04:46:24;;;;;;;26.62;15.82;;;4.70;99.90;;;;;;503905;236;27454;-74
2021/03/26 04:48:25;;;;;;;27.85;16.23;;;4.80;99.90;;;;;;503903;236;27467;-74
2021/03/26 04:50:26;;;;;;;24.52;14.95;;;4.70;99.90;;;;;;486594;244;28064;-72
2021/03/26 04:52:28;;;;;;;28.55;15.25;;;4.70;99.90;;;;;;503908;236;27957;-73
2021/03/26 04:54:29;;;;;;;24.95;15.45;;;4.70;99.90;;;;;;486638;244;27626;-73
2021/03/26 04:56:30;;;;;;;25.37;15.35;;;4.60;99.90;;;;;;503968;236;27373;-73
2021/03/26 04:58:31;;;;;;;29.75;17.48;;;4.60;99.90;;;;;;504063;236;27341;-73
2021/03/26 05:00:33;;;;;;;25.45;15.50;;;4.60;99.90;;;;;;504096;236;27383;-74
2021/03/26 05:02:34;;;;;;;27.73;15.27;;;4.60;99.90;;;;;;486631;244;27946;-73
2021/03/26 05:04:35;;;;;;;29.98;15.88;;;4.50;99.90;;;;;;503974;236;27867;-74
2021/03/26 05:06:37;;;;;;;24.90;14.57;;;4.50;99.90;;;;;;486554;244;27543;-74
2021/03/26 05:08:38;;;;;;;27.83;15.07;;;4.40;99.90;;;;;;503911;236;27460;-74
2021/03/26 05:10:39;;;;;;;24.08;13.45;;;4.30;99.90;;;;;;486581;244;27611;-73
2021/03/26 05:12:40;;;;;;;26.12;15.45;;;4.30;99.90;;;;;;503914;236;27346;-73
2021/03/26 05:14:42;;;;;;;32.42;17.42;;;4.20;99.90;;;;;;503916;236;27480;-74
2021/03/26 05:16:43;;;;;;;28.83;16.92;;;4.20;99.90;;;;;;486556;244;28742;-74
2021/03/26 05:18:44;;;;;;;23.40;14.87;;;4.10;99.90;;;;;;503901;236;27436;-72
2021/03/26 05:20:45;;;;;;;21.70;13.98;;;4.10;99.90;;;;;;486581;244;27527;-73
2021/03/26 05:22:47;;;;;;;22.33;14.82;;;4.10;99.90;;;;;;503880;236;27685;-73
2021/03/26 05:24:48;;;;;;;24.35;13.98;;;4.10;99.90;;;;;;503911;236;27397;-74
2021/03/26 05:26:49;;;;;;;25.42;15.45;;;4.10;99.90;;;;;;503869;236;27482;-74
2021/03/26 05:28:50;;;;;;;27.02;14.98;;;4.10;99.90;;;;;;486519;244;27987;-73
2021/03/26 05:30:52;;;;;;;25.52;16.55;;;4.10;99.90;;;;;;503930;236;27924;-73
2021/03/26 05:32:53;;;;;;;25.88;16.95;;;4.10;99.90;;;;;;503832;236;27416;-73
2021/03/26 05:34:54;;;;;;;27.95;16.15;;;4.20;99.90;;;;;;486523;244;27539;-73
2021/03/26 05:36:55;;;;;;;28.67;15.45;;;4.20;99.90;;;;;;503863;236;27381;-73
2021/03/26 05:38:57;;;;;;;29.35;15.10;;;4.20;99.90;;;;;;486557;244;27532;-74
2021/03/26 05:40:58;;;;;;;28.23;15.68;;;4.20;99.90;;;;;;503882;236;27406;-74
2021/03/26 05:42:59;;;;;;;28.15;15.52;;;4.30;99.90;;;;;;486500;244;27988;-73
2021/03/26 05:45:00;;;;;;;28.50;16.45;;;4.20;99.90;;;;;;503874;236;27478;-73
2021/03/26 05:47:02;;;;;;;30.98;17.55;;;4.20;99.90;;;;;;486520;244;27527;-72
2021/03/26 05:49:03;;;;;;;28.45;16.00;;;4.20;99.90;;;;;;503909;236;27467;-73
2021/03/26 05:51:04;;;;;;;30.20;16.92;;;4.30;99.90;;;;;;486535;244;27893;-73
2021/03/26 05:53:05;;;;;;;24.98;16.17;;;4.30;99.90;;;;;;503896;236;27484;-74
2021/03/26 05:55:07;;;;;;;30.27;17.87;;;4.40;99.90;;;;;;503882;236;27883;-74
2021/03/26 05:57:09;;;;;;;29.45;15.60;;;4.40;99.90;;;;;;486515;244;27646;-74
2021/03/26 05:59:09;;;;;;;36.40;16.80;;;4.40;99.90;;;;;;503916;236;27385;-74
2021/03/26 06:01:11;;;;;;;29.00;15.90;;;4.40;99.90;;;;;;503890;236;27421;-73
2021/03/26 06:03:12;;;;;;;28.20;16.85;;;4.40;99.90;;;;;;486501;244;27628;-74
2021/03/26 06:05:13;;;;;;;29.35;18.23;;;4.40;99.90;;;;;;503901;236;27381;-73
2021/03/26 06:07:14;;;;;;;39.70;20.42;;;4.50;99.90;;;;;;486532;244;27970;-74
2021/03/26 06:09:16;;;;;;;37.80;21.17;;;4.50;99.90;;;;;;503859;233;27961;-74
2021/03/26 06:11:17;;;;;;;35.03;19.58;;;4.60;99.90;;;;;;486494;244;27543;-73
2021/03/26 06:13:18;;;;;;;36.58;21.80;;;4.60;99.90;;;;;;503852;236;27400;-74
2021/03/26 06:15:19;;;;;;;46.00;21.40;;;4.70;99.90;;;;;;486578;244;27592;-74
2021/03/26 06:17:21;;;;;;;33.67;19.87;;;4.70;99.90;;;;;;504099;236;27349;-74
2021/03/26 06:19:22;;;;;;;36.60;19.62;;;4.80;99.90;;;;;;486744;244;28115;-73
2021/03/26 06:21:23;;;;;;;44.88;23.67;;;4.80;99.90;;;;;;504072;236;29703;-74
2021/03/26 06:23:24;;;;;;;76.25;33.92;;;4.90;99.90;;;;;;504064;236;27366;-74
2021/03/26 06:25:26;;;;;;;62.28;34.65;;;4.90;99.90;;;;;;486693;244;27533;-74
2021/03/26 06:27:27;;;;;;;50.47;27.10;;;5.00;99.90;;;;;;504021;236;27373;-73
2021/03/26 06:29:28;;;;;;;31.25;20.10;;;5.00;99.90;;;;;;486635;244;27540;-74
2021/03/26 06:31:29;;;;;;;27.52;18.45;;;5.10;99.90;;;;;;503962;236;28767;-74
2021/03/26 06:33:31;;;;;;;40.50;25.92;;;5.20;99.90;;;;;;486591;244;27987;-74
2021/03/26 06:35:32;;;;;;;74.62;35.95;;;5.20;99.90;;;;;;503908;236;27488;-74
2021/03/26 06:37:33;;;;;;;58.25;32.00;;;5.30;99.90;;;;;;486634;244;27516;-73
2021/03/26 06:39:34;;;;;;;49.85;27.48;;;5.40;99.90;;;;;;503931;233;27463;-74
2021/03/26 06:41:36;;;;;;;52.75;29.12;;;5.40;99.90;;;;;;486564;244;27526;-74
2021/03/26 06:43:37;;;;;;;44.35;24.40;;;5.50;99.90;;;;;;503980;236;27899;-74
2021/03/26 06:45:39;;;;;;;35.45;20.70;;;5.50;99.90;;;;;;503952;236;27381;-74
2021/03/26 06:47:40;;;;;;;40.00;23.83;;;5.60;99.90;;;;;;486594;244;27511;-74
2021/03/26 06:49:47;;;;;;;41.63;23.12;;;5.70;99.90;;;;;;503974;236;27422;-74
2021/03/26 06:51:42;;;;;;;39.67;22.23;;;5.80;99.90;;;;;;486122;244;27625;-77
2021/03/26 06:53:43;;;;;;;37.50;21.17;;;5.80;99.90;;;;;;504001;236;27800;-77
2021/03/26 06:55:45;;;;;;;34.60;21.20;;;5.90;99.90;;;;;;503951;236;27483;-74
2021/03/26 06:57:46;;;;;;;39.05;21.58;;;6.00;99.90;;;;;;486575;244;27523;-79
2021/03/26 06:59:47;;;;;;;34.78;21.00;;;6.00;99.90;;;;;;503956;236;27373;-77
2021/03/26 07:01:48;;;;;;;28.50;18.60;;;6.10;99.90;;;;;;486530;241;27939;-75
2021/03/26 07:03:50;;;;;;;32.58;19.00;;;6.10;99.90;;;;;;503938;236;27934;-74
2021/03/26 07:05:51;;;;;;;37.35;19.73;;;6.20;99.90;;;;;;503940;236;27471;-76
2021/03/26 07:07:52;;;;;;;26.08;16.90;;;6.30;99.90;;;;;;486569;244;27509;-75
2021/03/26 07:09:53;;;;;;;25.52;17.10;;;6.40;99.90;;;;;;503938;236;27385;-73
2021/03/26 07:11:55;;;;;;;29.30;16.10;;;6.50;99.90;;;;;;503928;236;28634;-78
2021/03/26 07:13:56;;;;;;;29.45;17.20;;;6.70;99.90;;;;;;486610;244;27536;-75
2021/03/26 07:15:58;;;;;;;27.77;18.07;;;6.70;99.90;;;;;;503950;236;27373;-76
2021/03/26 07:17:58;;;;;;;23.30;15.73;;;6.90;99.90;;;;;;503922;236;27974;-75
2021/03/26 07:20:00;;;;;;;26.52;15.13;;;6.90;99.90;;;;;;486587;244;27641;-74
2021/03/26 07:22:01;;;;;;;25.00;15.70;;;7.00;99.90;;;;;;503975;233;27813;-74
2021/03/26 07:24:02;;;;;;;27.98;15.55;;;7.00;99.90;;;;;;503973;236;29014;-75
2021/03/26 07:26:04;;;;;;;23.57;15.00;;;7.20;99.90;;;;;;486618;244;27496;-73
2021/03/26 07:28:05;;;;;;;26.92;14.77;;;7.20;99.90;;;;;;503941;236;28420;-77
2021/03/26 07:30:06;;;;;;;23.17;14.15;;;7.30;99.90;;;;;;486650;244;27568;-77
2021/03/26 07:32:07;;;;;;;24.43;14.50;;;7.40;99.90;;;;;;501542;233;27284;-76
2021/03/26 07:34:09;;;;;;;24.90;14.83;;;7.50;99.90;;;;;;501674;237;28288;-73
2021/03/26 07:36:10;;;;;;;19.90;12.67;;;7.50;99.90;;;;;;501665;237;28168;-76
2021/03/26 07:38:11;;;;;;;25.67;14.50;;;7.60;99.90;;;;;;481516;245;27978;-75
2021/03/26 07:40:12;;;;;;;24.70;14.40;;;7.70;99.90;;;;;;501643;237;28299;-78
2021/03/26 07:42:14;;;;;;;23.97;13.60;;;7.80;99.90;;;;;;481458;245;28467;-76
2021/03/26 07:44:15;;;;;;;22.33;14.70;;;7.90;99.90;;;;;;501481;237;27904;-78
2021/03/26 07:46:16;;;;;;;29.73;15.40;;;8.00;99.90;;;;;;481350;244;28100;-78
2021/03/26 07:48:17;;;;;;;20.60;13.43;;;8.10;99.90;;;;;;501469;237;27824;-76
2021/03/26 07:50:19;;;;;;;19.20;12.90;;;8.10;99.90;;;;;;501456;237;27848;-76
2021/03/26 07:52:20;;;;;;;19.00;13.20;;;8.20;99.90;;;;;;481407;244;27834;-76
2021/03/26 07:54:21;;;;;;;17.57;12.40;;;8.20;99.90;;;;;;501469;237;28006;-77
2021/03/26 07:56:23;;;;;;;27.43;13.70;;;8.30;99.90;;;;;;481328;244;27758;-77
2021/03/26 07:58:24;;;;;;;23.03;14.43;;;8.40;99.90;;;;;;501410;237;28025;-77
2021/03/26 08:00:25;;;;;;;19.60;12.23;;;8.50;99.90;;;;;;481146;245;28338;-77
2021/03/26 08:02:26;;;;;;;19.43;13.27;;;8.60;99.90;;;;;;501212;237;28682;-77
2021/03/26 08:04:27;;;;;;;23.73;13.23;;;8.60;99.90;;;;;;481280;244;27925;-77
2021/03/26 08:06:29;;;;;;;26.03;13.93;;;8.60;99.90;;;;;;501260;237;27976;-75
2021/03/26 08:08:30;;;;;;;22.00;13.90;;;8.70;99.90;;;;;;481305;244;27859;-77
2021/03/26 08:10:31;;;;;;;21.73;13.17;;;8.80;99.90;;;;;;501377;237;27937;-77
2021/03/26 08:12:32;;;;;;;20.60;13.40;;;8.90;99.90;;;;;;481314;244;28224;-77
2021/03/26 08:14:34;;;;;;;28.47;14.33;;;8.90;99.90;;;;;;501376;237;27748;-78
2021/03/26 08:16:35;;;;;;;23.73;14.00;;;9.00;99.90;;;;;;481289;245;28481;-76
2021/03/26 08:18:36;;;;;;;22.23;14.07;;;9.00;99.90;;;;;;501353;237;28309;-77
2021/03/26 08:20:38;;;;;;;24.87;14.60;;;9.10;99.90;;;;;;481370;245;27641;-76
2021/03/26 08:22:39;;;;;;;23.00;14.50;;;9.10;99.90;;;;;;501502;237;27790;-77
2021/03/26 08:24:40;;;;;;;22.13;14.90;;;9.10;99.90;;;;;;481380;244;27638;-76
2021/03/26 08:26:41;;;;;;;23.50;14.43;;;9.20;99.90;;;;;;501495;237;27869;-76
2021/03/26 08:28:43;;;;;;;22.53;15.00;;;9.20;99.90;;;;;;501531;237;27716;-78
2021/03/26 08:30:44;;;;;;;21.40;14.00;;;9.30;99.90;;;;;;481474;244;27927;-77
2021/03/26 08:32:46;;;;;;;25.10;14.93;;;9.30;99.90;;;;;;501495;237;28280;-75
2021/03/26 08:34:46;;;;;;;24.33;14.97;;;9.40;99.90;;;;;;481432;244;27999;-77
2021/03/26 08:36:48;;;;;;;22.60;13.63;;;9.40;99.90;;;;;;501572;237;27696;-76
2021/03/26 08:38:49;;;;;;;23.03;15.17;;;9.50;99.90;;;;;;481483;244;27994;-77
2021/03/26 08:40:50;;;;;;;21.90;13.77;;;9.60;99.90;;;;;;501522;237;27779;-77
2021/03/26 08:42:51;;;;;;;25.90;14.80;;;9.70;99.90;;;;;;481560;245;27516;-78
2021/03/26 08:44:53;;;;;;;22.20;14.37;;;9.60;99.90;;;;;;501666;237;27815;-78
2021/03/26 08:46:54;;;;;;;20.97;12.53;;;9.70;99.90;;;;;;481524;247;27999;-76
2021/03/26 08:48:55;;;;;;;25.43;14.63;;;9.70;99.90;;;;;;501666;237;27837;-76
2021/03/26 08:50:57;;;;;;;20.60;13.20;;;9.70;99.90;;;;;;481470;245;29011;-76
2021/03/26 08:52:58;;;;;;;21.70;14.33;;;9.80;99.90;;;;;;501524;237;27947;-76
2021/03/26 08:54:59;;;;;;;25.53;13.90;;;9.80;99.90;;;;;;501503;237;28311;-76
2021/03/26 08:57:00;;;;;;;21.97;14.63;;;9.80;99.90;;;;;;481330;245;28020;-77
2021/03/26 08:59:02;;;;;;;20.80;13.40;;;9.80;99.90;;;;;;501515;237;27896;-76
2021/03/26 09:01:03;;;;;;;18.70;12.00;;;9.90;99.90;;;;;;481386;245;28055;-76
2021/03/26 09:03:04;;;;;;;17.17;12.00;;;10.00;99.90;;;;;;501442;237;27479;-77
2021/03/26 09:05:05;;;;;;;20.53;13.13;;;10.10;99.90;;;;;;481413;244;27646;-75
2021/03/26 09:07:09;;;;;;;17.77;10.67;;;10.20;99.90;;;;;;501474;237;27963;-76
2021/03/26 09:09:08;;;;;;;15.43;10.57;;;10.30;99.90;;;;;;481304;245;28941;-78
2021/03/26 09:11:09;;;;;;;17.23;11.70;;;10.40;99.90;;;;;;501487;237;28121;-78
2021/03/26 09:13:10;;;;;;;17.07;11.60;;;10.40;99.90;;;;;;501456;237;27730;-77
2021/03/26 09:15:12;;;;;;;14.50;9.83;;;10.50;99.90;;;;;;481217;244;27915;-75
2021/03/26 09:17:13;;;;;;;17.87;9.30;;;10.50;99.90;;;;;;501150;237;27606;-77
2021/03/26 09:19:14;;;;;;;18.23;9.30;;;10.60;99.90;;;;;;501974;233;28117;-77
2021/03/26 09:21:15;;;;;;;14.43;9.37;;;10.70;99.90;;;;;;490242;241;27818;-77
2021/03/26 09:23:17;;;;;;;17.30;8.80;;;10.90;99.90;;;;;;501135;237;29047;-77
2021/03/26 09:25:18;;;;;;;15.33;9.03;;;11.10;99.90;;;;;;489967;241;28628;-76
2021/03/26 09:27:19;;;;;;;11.07;7.90;;;11.10;99.90;;;;;;501507;237;28548;-77
2021/03/26 09:29:20;;;;;;;12.23;8.80;;;11.20;99.90;;;;;;490253;241;28093;-77
2021/03/26 09:31:24;;;;;;;13.53;9.40;;;11.30;99.90;;;;;;501533;237;27968;-78
2021/03/26 09:33:23;;;;;;;13.10;9.43;;;11.50;99.90;;;;;;490240;241;28101;-76
2021/03/26 09:35:24;;;;;;;14.87;9.37;;;11.40;99.90;;;;;;501519;237;28200;-77
2021/03/26 09:37:25;;;;;;;15.63;9.27;;;11.30;99.90;;;;;;490356;241;28203;-77
2021/03/26 09:39:27;;;;;;;16.80;9.97;;;11.20;99.90;;;;;;501491;237;28078;-77
2021/03/26 09:41:44;;;;;;;15.10;10.00;;;11.10;99.90;;;;;;490339;241;28924;-76
2021/03/26 09:43:32;;;;;;;12.97;8.83;;;11.00;99.90;;;;;;501472;236;28632;-76
2021/03/26 09:45:34;;;;;;;13.80;8.60;;;10.90;99.90;;;;;;501515;237;28595;-76
2021/03/26 09:47:35;;;;;;;12.23;9.03;;;11.10;99.90;;;;;;490342;241;28779;-78
2021/03/26 09:49:40;;;;;;;16.73;9.63;;;11.30;99.90;;;;;;501473;237;27988;-76
2021/03/26 09:51:37;;;;;;;14.97;9.07;;;11.50;99.90;;;;;;489883;242;28098;-76
2021/03/26 09:53:40;;;;;;;14.97;8.37;;;;;;;;;;501459;237;28031;-76
2021/03/26 09:55:41;;;;;;;12.20;8.43;;;11.80;99.90;;;;;;490246;241;27951;-76
2021/03/26 09:57:44;;;;;;;11.70;7.13;;;12.10;99.90;;;;;;501465;237;28166;-76
2021/03/26 09:59:44;;;;;;;12.23;7.60;;;12.10;99.90;;;;;;490232;242;28444;-77
2021/03/26 10:01:45;;;;;;;16.73;7.50;;;12.10;99.90;;;;;;501528;237;28141;-76
2021/03/26 10:03:47;;;;;;;9.10;6.67;;;;;;;;;;490350;242;28189;-78
2021/03/26 10:05:50;;;;;;;12.57;6.33;;;;;;;;;;501603;237;27547;-77
2021/03/26 10:07:53;;;;;;;9.50;6.50;;;12.10;99.90;;;;;;490487;241;27188;-76
2021/03/26 10:10:43;;;;;;;9.50;5.80;;;12.10;99.90;;;;;;501479;237;28367;-76
2021/03/26 10:11:53;;;;;;;7.47;5.80;;;12.30;99.90;;;;;;488880;242;29688;-76
2021/03/26 10:13:55;;;;;;;7.27;5.23;;;12.30;99.90;;;;;;501654;237;28938;-75
2021/03/26 10:15:56;;;;;;;6.70;5.10;;;12.40;99.90;;;;;;490477;241;29390;-76
2021/03/26 10:17:58;;;;;;;13.20;6.47;;;12.50;99.90;;;;;;501644;237;27909;-76
2021/03/26 10:19:58;;;;;;;6.70;5.27;;;12.70;99.90;;;;;;490334;241;28324;-76
2021/03/26 10:22:00;;;;;;;6.60;5.50;;;12.60;99.90;;;;;;501500;237;28494;-75
2021/03/26 10:24:02;;;;;;;9.23;5.70;;;;;;;;;;490329;241;28334;-76